Time;durP1;ratioP1;P1;durP2;ratioP2;P2;SDS_P1;SDS_P2;PMS_P1;PMS_P2;Temp;Humidity;BMP_temperature;BMP_pressure;BME280_temperature;BME280_humidity;BME280_pressure;Samples;Min_cycle;Max_cycle;Signal;HPM_P1;HPM_P2
2022/01/16 00:01:07;;;;;;;3.58;1.80;;;;;;;19.61;52.16;101236.31;4966466;28;20042;-46
2022/01/16 00:06:17;;;;;;;3.28;1.95;;;;;;;19.90;51.20;101243.41;4965103;28;20045;-47
2022/01/16 00:08:43;;;;;;;4.05;2.30;;;;;;;19.92;50.91;101253.94;4971131;28;20110;-47
2022/01/16 00:11:09;;;;;;;3.65;2.17;;;;;;;19.84;51.01;101244.00;4967113;28;20031;-46
2022/01/16 00:13:35;;;;;;;2.95;2.05;;;;;;;19.63;51.49;101244.16;4972389;28;20030;-46
2022/01/16 00:16:00;;;;;;;3.15;2.08;;;;;;;19.60;51.44;101241.78;4970262;28;20034;-46
2022/01/16 00:18:29;;;;;;;3.00;2.20;;;;;;;19.72;51.10;101243.31;4969484;28;20026;-47
2022/01/16 00:20:55;;;;;;;8.85;2.13;;;;;;;19.77;51.05;101241.06;4971695;28;20057;-46
2022/01/16 00:23:25;;;;;;;4.28;2.17;;;;;;;19.60;51.17;101228.47;4968316;28;20034;-46
2022/01/16 00:25:52;;;;;;;3.83;2.03;;;;;;;19.71;51.08;101231.00;4971732;28;20015;-46
2022/01/16 00:28:20;;;;;;;2.50;2.03;;;;;;;19.72;50.91;101222.00;4971031;28;20118;-46
2022/01/16 00:30:46;;;;;;;4.22;2.42;;;;;;;19.53;51.28;101225.53;4969915;28;20086;-48
2022/01/16 00:33:12;;;;;;;2.72;2.22;;;;;;;19.60;51.13;101231.13;4969457;28;20086;-46
2022/01/16 00:35:38;;;;;;;3.95;2.20;;;;;;;19.60;50.87;101252.44;4970585;28;20027;-46
2022/01/16 00:38:04;;;;;;;3.42;2.42;;;;;;;19.64;50.94;101253.81;4972850;28;20089;-49
2022/01/16 00:40:29;;;;;;;3.20;2.10;;;;;;;19.66;50.83;101251.03;4971447;28;20023;-46
2022/01/16 00:42:57;;;;;;;4.45;2.10;;;;;;;19.49;51.20;101249.91;4978222;28;21512;-46
2022/01/16 00:45:23;;;;;;;3.22;2.17;;;;;;;19.55;50.88;101244.00;4972601;28;20049;-46
2022/01/16 00:47:48;;;;;;;2.65;2.10;;;;;;;19.32;51.59;101260.31;4970844;28;20113;-46
2022/01/16 00:50:13;;;;;;;2.53;2.03;;;;;;;19.44;51.17;101260.16;4971936;28;20142;-46
2022/01/16 00:52:39;;;;;;;2.70;1.98;;;;;;;19.29;51.58;101255.25;4971252;28;20042;-47
2022/01/16 00:55:05;;;;;;;3.53;2.05;;;;;;;19.27;51.63;101241.22;4971766;28;20023;-46
2022/01/16 00:57:31;;;;;;;3.28;2.03;;;;;;;19.33;51.65;101243.34;4970710;28;20031;-46
2022/01/16 00:59:56;;;;;;;3.13;2.00;;;;;;;19.40;51.57;101247.13;4971793;28;20019;-46
2022/01/16 01:02:23;;;;;;;2.88;2.33;;;;;;;19.32;51.62;101243.50;4969414;28;20404;-46
2022/01/16 01:04:49;;;;;;;3.58;1.75;;;;;;;19.34;51.83;101237.03;4969762;28;20059;-46
2022/01/16 01:07:15;;;;;;;2.05;1.80;;;;;;;19.36;51.54;101227.09;4971869;28;20023;-47
2022/01/16 01:09:40;;;;;;;2.92;2.00;;;;;;;19.37;51.59;101230.59;4960001;28;20025;-46
2022/01/16 01:12:06;;;;;;;3.92;2.03;;;;;;;19.47;51.61;101215.47;4964237;28;20038;-46
2022/01/16 01:17:07;;;;;;;3.00;2.00;;;;;;;19.77;50.87;101214.44;4972277;28;20165;-46
2022/01/16 01:19:34;;;;;;;3.38;2.25;;;;;;;19.78;50.61;101216.09;4970281;28;20046;-46
2022/01/16 01:22:00;;;;;;;2.65;1.85;;;;;;;19.72;50.83;101230.00;4970128;28;20480;-46
2022/01/16 01:24:27;;;;;;;2.47;1.52;;;;;;;19.66;50.91;101209.22;4970802;28;20069;-46
2022/01/16 01:29:28;;;;;;;1.77;1.45;;;;;;;19.61;50.80;101217.66;4975090;28;20073;-46
2022/01/16 01:31:54;;;;;;;4.28;2.00;;;;;;;19.72;50.56;101251.31;4973314;28;20035;-46
2022/01/16 01:34:20;;;;;;;2.67;1.73;;;;;;;19.80;50.38;101238.09;4974134;28;20035;-46
2022/01/16 01:36:48;;;;;;;2.10;1.50;;;;;;;19.82;50.13;101224.66;4973222;28;20449;-46
2022/01/16 01:39:15;;;;;;;2.70;2.17;;;;;;;19.80;50.14;101216.78;4974944;28;20038;-46
2022/01/16 01:41:41;;;;;;;3.97;1.92;;;;;;;19.81;50.07;101169.69;4976363;28;20404;-46
2022/01/16 01:52:18;;;;;;;3.15;1.77;;;;;;;19.89;50.17;101151.13;4974083;28;20042;-46
2022/01/16 01:54:43;;;;;;;4.90;1.83;;;;;;;19.93;50.20;101135.69;4975136;28;20023;-46
2022/01/16 01:57:10;;;;;;;2.17;1.40;;;;;;;19.87;50.25;101184.25;4974889;28;20026;-48
2022/01/16 01:59:39;;;;;;;2.25;1.85;;;;;;;19.87;50.38;101194.91;4973252;28;20042;-47
2022/01/16 02:02:05;;;;;;;2.95;1.60;;;;;;;19.86;50.33;101187.91;4969888;28;20114;-46
2022/01/16 02:04:30;;;;;;;2.63;1.90;;;;;;;19.88;50.31;101241.88;4971917;28;20110;-46
2022/01/16 02:06:57;;;;;;;2.05;1.65;;;;;;;19.86;50.36;101203.88;4974771;28;20026;-46
2022/01/16 02:09:23;;;;;;;3.60;1.58;;;;;;;19.79;50.46;101220.47;4973001;28;20034;-47
2022/01/16 02:11:51;;;;;;;3.25;1.85;;;;;;;19.84;50.45;101220.00;4972557;28;20030;-46
2022/01/16 02:14:47;;;;;;;2.22;1.50;;;;;;;19.86;50.12;101258.00;4974504;28;20027;-48
2022/01/16 02:35:53;;;;;;;4.10;1.52;;;;;;;19.84;50.07;101251.16;4973224;28;20088;-48
2022/01/16 02:38:18;;;;;;;1.90;1.48;;;;;;;19.85;50.22;101256.34;4971667;28;20042;-46
2022/01/16 02:40:56;;;;;;;1.65;1.30;;;;;;;19.84;50.25;101261.81;4974128;28;20027;-45
2022/01/16 02:43:29;;;;;;;5.90;1.58;;;;;;;19.83;50.19;101252.13;4974182;28;20385;-46
2022/01/16 02:46:35;;;;;;;2.92;1.80;;;;;;;19.85;50.17;101255.53;4971009;28;20027;-46
2022/01/16 02:48:49;;;;;;;5.10;1.67;;;;;;;19.87;50.09;101240.22;4974561;28;20027;-46
2022/01/16 02:51:20;;;;;;;2.78;2.00;;;;;;;19.87;50.05;101245.56;4971266;28;20084;-46
2022/01/16 02:53:47;;;;;;;1.95;1.38;;;;;;;19.87;50.19;101243.72;4973979;28;20026;-46
2022/01/16 02:56:13;;;;;;;2.10;1.50;;;;;;;19.88;50.11;101233.88;4972950;28;20034;-46
2022/01/16 02:58:39;;;;;;;1.77;1.60;;;;;;;19.87;50.14;101233.06;4971925;28;20058;-46
2022/01/16 03:01:05;;;;;;;2.53;1.50;;;;;;;19.87;50.19;101248.22;4973970;28;20384;-46
2022/01/16 03:03:30;;;;;;;2.17;1.52;;;;;;;19.82;50.33;101243.31;4973573;28;20031;-47
2022/01/16 03:05:56;;;;;;;4.28;1.63;;;;;;;19.83;50.38;101236.13;4963600;28;20027;-46
2022/01/16 03:08:21;;;;;;;2.30;1.40;;;;;;;19.81;50.25;101229.16;4973477;28;20027;-46
2022/01/16 03:13:22;;;;;;;1.58;1.33;;;;;;;19.79;50.15;101193.81;4973160;28;20034;-46
2022/01/16 03:15:50;;;;;;;1.85;1.67;;;;;;;19.78;50.10;101197.44;4973811;28;20038;-46
2022/01/16 03:23:25;;;;;;;1.92;1.60;;;;;;;19.89;49.75;101203.59;4973929;28;20508;-47
2022/01/16 03:25:51;;;;;;;5.35;1.60;;;;;;;19.94;49.86;101196.00;4971670;28;20030;-48
2022/01/16 03:28:18;;;;;;;2.08;1.50;;;;;;;19.96;49.80;101208.22;4971210;28;20026;-46
2022/01/16 03:30:44;;;;;;;1.80;1.48;;;;;;;19.97;49.95;101203.72;4990775;28;20041;-48
2022/01/16 03:33:10;;;;;;;2.28;1.63;;;;;;;19.97;49.88;101188.56;4971057;28;20022;-48
2022/01/16 03:35:35;;;;;;;2.10;1.48;;;;;;;19.99;50.00;101185.75;4972563;28;20031;-46
2022/01/16 03:38:01;;;;;;;2.00;1.40;;;;;;;19.96;49.94;101180.69;4969729;28;20469;-46
2022/01/16 03:40:27;;;;;;;2.13;1.35;;;;;;;19.83;50.47;101173.03;4966051;28;20071;-47
2022/01/16 03:42:53;;;;;;;2.00;1.70;;;;;;;19.84;50.39;101174.72;4984146;28;20053;-46
2022/01/16 03:45:18;;;;;;;1.80;1.42;;;;;;;19.67;50.66;101172.75;4969106;28;20035;-48
2022/01/16 03:47:44;;;;;;;3.33;1.63;;;;;;;19.76;50.52;101175.44;4971241;28;20085;-47
2022/01/16 03:50:10;;;;;;;2.28;1.33;;;;;;;19.78;50.43;101173.47;4973221;28;20114;-46
2022/01/16 03:52:35;;;;;;;2.70;1.92;;;;;;;19.79;50.37;101166.34;4967695;28;20035;-46
2022/01/16 03:55:02;;;;;;;2.05;1.30;;;;;;;19.79;50.21;101175.16;4973410;28;20031;-46
2022/01/16 03:57:28;;;;;;;2.33;1.40;;;;;;;19.80;50.18;101176.81;4960071;28;20077;-47
2022/01/16 03:59:53;;;;;;;2.92;1.48;;;;;;;19.81;50.44;101180.34;4970613;28;20489;-47
2022/01/16 04:02:18;;;;;;;1.42;1.30;;;;;;;19.92;49.96;101168.66;4958302;28;20034;-46
2022/01/16 04:04:44;;;;;;;4.55;1.60;;;;;;;19.92;49.83;101181.97;4961923;28;20027;-48
2022/01/16 04:07:14;;;;;;;2.75;1.50;;;;;;;19.95;49.65;101181.69;4957285;28;20043;-47
2022/01/16 04:09:40;;;;;;;2.15;1.67;;;;;;;19.95;49.58;101184.38;4957274;28;20039;-47
2022/01/16 04:12:07;;;;;;;1.80;1.60;;;;;;;19.89;49.70;101192.94;4956312;28;20526;-50
2022/01/16 04:17:19;;;;;;;2.28;1.30;;;;;;;19.86;49.77;101188.72;4957966;28;20075;-47
2022/01/16 04:19:45;;;;;;;2.88;1.45;;;;;;;19.86;49.80;101183.41;4957187;28;20054;-46
2022/01/16 04:22:11;;;;;;;1.77;1.08;;;;;;;19.89;49.78;101182.28;4957928;28;20031;-48
2022/01/16 04:24:36;;;;;;;2.67;1.50;;;;;;;19.74;50.31;101174.75;4957088;28;20082;-46
2022/01/16 04:27:02;;;;;;;2.78;1.45;;;;;;;19.74;50.38;101176.56;4957912;28;20054;-47
2022/01/16 04:29:28;;;;;;;2.83;1.40;;;;;;;19.74;50.40;101172.06;4956987;28;20027;-46
2022/01/16 04:31:53;;;;;;;2.17;1.40;;;;;;;19.75;50.19;101168.44;4957141;28;20046;-47
2022/01/16 04:34:19;;;;;;;3.08;1.38;;;;;;;19.76;50.22;101180.75;4957774;28;20036;-46
2022/01/16 04:36:44;;;;;;;1.85;1.20;;;;;;;19.76;50.23;101172.78;4956940;28;20073;-46
2022/01/16 04:39:15;;;;;;;2.35;1.52;;;;;;;19.78;50.21;101175.28;4956099;28;20045;-46
2022/01/16 04:44:26;;;;;;;2.13;1.30;;;;;;;19.57;50.68;101176.31;4970665;28;20073;-46
2022/01/16 04:46:52;;;;;;;2.13;1.45;;;;;;;19.76;50.10;101178.09;4970781;28;20059;-46
2022/01/16 04:49:17;;;;;;;1.70;1.30;;;;;;;19.77;50.01;101169.13;4971420;28;20035;-45
2022/01/16 04:51:43;;;;;;;3.13;1.52;;;;;;;19.77;50.13;101174.47;4972519;28;20038;-48
2022/01/16 04:54:08;;;;;;;1.23;1.13;;;;;;;19.76;49.95;101167.44;4969682;28;20035;-46
2022/01/16 04:56:34;;;;;;;1.88;1.30;;;;;;;19.69;50.08;101171.66;4970891;28;20178;-46
2022/01/16 04:59:00;;;;;;;1.88;1.48;;;;;;;19.61;50.19;101171.53;4967000;28;20418;-46
2022/01/16 05:01:26;;;;;;;2.65;1.60;;;;;;;19.57;50.40;101160.34;4972675;28;20041;-46
2022/01/16 05:03:52;;;;;;;1.63;1.23;;;;;;;19.61;50.15;101158.22;4973549;28;20118;-46
2022/01/16 05:06:18;;;;;;;1.55;1.10;;;;;;;19.63;50.06;101166.91;4973733;28;20035;-47
2022/01/16 05:08:43;;;;;;;1.60;1.10;;;;;;;19.66;50.20;101166.59;4979513;28;20030;-45
2022/01/16 05:11:10;;;;;;;1.73;1.10;;;;;;;19.55;50.18;101166.78;4968079;28;20588;-45
2022/01/16 05:18:48;;;;;;;1.67;1.13;;;;;;;19.22;51.31;101171.63;4975007;28;20189;-45
2022/01/16 05:21:14;;;;;;;1.30;1.00;;;;;;;19.30;51.21;101177.06;4975611;28;20524;-45
2022/01/16 05:23:41;;;;;;;2.20;1.33;;;;;;;19.42;50.82;101157.28;4974808;28;20034;-47
2022/01/16 05:26:07;;;;;;;2.78;1.40;;;;;;;19.50;50.77;101169.03;4976118;28;20109;-45
2022/01/16 05:28:33;;;;;;;5.65;1.10;;;;;;;19.27;51.40;101165.84;4974187;28;20027;-45
2022/01/16 05:30:58;;;;;;;2.53;1.33;;;;;;;19.24;51.40;101177.63;4975979;28;20073;-45
2022/01/16 05:33:23;;;;;;;2.90;1.30;;;;;;;19.39;51.04;101180.69;4972208;28;20031;-46
2022/01/16 05:35:49;;;;;;;1.50;1.30;;;;;;;19.53;50.82;101176.72;4973191;28;20489;-45
2022/01/16 05:38:15;;;;;;;1.50;1.08;;;;;;;19.41;50.85;101184.91;4982682;28;20206;-45
2022/01/16 05:40:41;;;;;;;1.77;1.17;;;;;;;19.56;50.61;101179.13;4973446;28;20101;-45
2022/01/16 05:43:07;;;;;;;1.70;1.15;;;;;;;19.64;50.36;101179.22;4973168;28;20041;-45
2022/01/16 05:45:32;;;;;;;2.67;1.10;;;;;;;19.67;50.38;101184.28;4975707;28;20030;-45
2022/01/16 05:47:58;;;;;;;1.60;1.40;;;;;;;19.58;50.42;101190.47;4974133;28;20026;-45
2022/01/16 05:50:24;;;;;;;2.75;1.20;;;;;;;19.54;50.56;101189.06;4974280;28;20436;-45
2022/01/16 05:52:50;;;;;;;2.38;1.13;;;;;;;19.66;50.30;101192.41;4973447;28;20039;-45
2022/01/16 05:55:16;;;;;;;2.10;1.20;;;;;;;19.56;50.36;101192.44;4975490;28;20085;-45
2022/01/16 05:57:42;;;;;;;1.38;1.13;;;;;;;19.51;50.66;101189.34;4973184;28;20034;-45
2022/01/16 06:00:09;;;;;;;1.50;1.23;;;;;;;19.72;50.13;101195.38;4966763;28;20105;-45
2022/01/16 06:02:35;;;;;;;2.00;1.13;;;;;;;19.80;49.68;101195.47;4974684;28;20081;-47
2022/01/16 06:05:01;;;;;;;1.40;1.00;;;;;;;19.86;49.58;101190.56;4971087;28;20023;-45
2022/01/16 06:07:26;;;;;;;2.38;1.00;;;;;;;19.83;49.79;101194.38;4985191;28;20030;-45
2022/01/16 06:09:52;;;;;;;1.00;0.80;;;;;;;19.89;49.63;101204.44;4981996;28;20515;-46
2022/01/16 06:12:18;;;;;;;2.28;1.40;;;;;;;19.90;49.75;101207.94;4971975;28;20066;-46
2022/01/16 06:14:44;;;;;;;1.88;1.27;;;;;;;19.91;49.67;101212.28;4976303;28;20027;-45
2022/01/16 06:17:09;;;;;;;1.52;1.00;;;;;;;19.91;49.73;101207.78;4984334;28;20435;-45
2022/01/16 06:19:34;;;;;;;2.03;1.20;;;;;;;19.94;49.86;101217.31;4963550;28;20034;-46
2022/01/16 06:22:00;;;;;;;1.83;1.30;;;;;;;19.95;49.75;101225.19;4972937;28;20037;-46
2022/01/16 06:24:25;;;;;;;3.08;1.20;;;;;;;19.97;49.69;101243.69;4974924;28;20026;-45
2022/01/16 06:26:51;;;;;;;1.65;1.17;;;;;;;19.95;49.88;101243.84;4973285;28;20031;-47
2022/01/16 06:29:17;;;;;;;2.33;1.10;;;;;;;19.98;49.81;101251.56;4971131;28;20050;-45
2022/01/16 06:31:43;;;;;;;3.25;1.10;;;;;;;19.98;49.70;101256.03;4973635;28;20077;-45
2022/01/16 06:34:09;;;;;;;1.33;0.95;;;;;;;20.02;49.66;101262.75;4973456;28;20059;-45
2022/01/16 06:36:35;;;;;;;1.45;1.13;;;;;;;19.99;49.65;101265.72;4974599;28;20038;-45
2022/01/16 06:39:06;;;;;;;2.15;0.90;;;;;;;19.99;49.71;101263.88;4972315;28;20100;-47
2022/01/16 06:41:33;;;;;;;1.15;1.02;;;;;;;19.93;49.61;101274.28;4973512;28;20117;-45
2022/01/16 06:43:58;;;;;;;1.75;1.00;;;;;;;19.86;49.71;101282.00;4973910;28;20027;-45
2022/01/16 06:46:24;;;;;;;2.50;1.38;;;;;;;19.89;49.62;101284.41;4974651;28;20087;-45
2022/01/16 06:48:50;;;;;;;1.67;1.10;;;;;;;19.90;49.57;101290.56;4973162;28;20035;-46
2022/01/16 06:51:19;;;;;;;1.60;1.50;;;;;;;19.95;49.51;101288.31;4974459;28;20521;-45
2022/01/16 06:53:46;;;;;;;2.53;1.20;;;;;;;19.95;49.38;101294.47;4971883;28;20492;-46
2022/01/16 06:56:11;;;;;;;2.78;1.30;;;;;;;19.93;49.41;101293.78;4974389;28;20039;-45
2022/01/16 06:58:36;;;;;;;1.40;1.25;;;;;;;19.87;49.32;101290.84;4969746;28;20038;-45
2022/01/16 07:01:02;;;;;;;1.70;1.30;;;;;;;19.81;49.69;101303.75;4970896;28;20033;-45
2022/01/16 07:03:27;;;;;;;2.45;1.33;;;;;;;19.83;49.72;101308.94;4972667;28;20062;-46
2022/01/16 07:05:54;;;;;;;1.88;1.40;;;;;;;19.86;49.78;101305.16;4973864;28;20030;-45
2022/01/16 07:08:22;;;;;;;1.88;1.30;;;;;;;19.86;49.65;101311.31;4966658;28;20034;-45
2022/01/16 07:10:49;;;;;;;2.17;1.73;;;;;;;19.86;49.58;101321.97;4966987;28;20054;-46
2022/01/16 07:13:15;;;;;;;2.70;1.70;;;;;;;19.86;49.84;101324.63;4972914;28;20046;-45
2022/01/16 07:15:40;;;;;;;2.25;1.60;;;;;;;19.87;49.82;101312.19;4973778;28;20027;-46
2022/01/16 07:18:06;;;;;;;2.40;1.88;;;;;;;19.89;49.83;101318.22;4964603;28;20031;-47
2022/01/16 07:20:31;;;;;;;2.75;1.85;;;;;;;19.89;49.84;101310.22;4972294;28;20397;-47
2022/01/16 07:22:56;;;;;;;2.50;2.13;;;;;;;19.90;49.78;101317.22;4973389;28;20049;-46
2022/01/16 07:25:22;;;;;;;4.57;2.50;;;;;;;19.90;49.76;101322.53;4970678;28;20117;-46
2022/01/16 07:27:47;;;;;;;3.00;2.35;;;;;;;19.93;49.60;101347.09;4972130;28;20097;-45
2022/01/16 07:30:13;;;;;;;2.40;2.00;;;;;;;19.97;49.56;101350.31;4971232;28;20031;-45
2022/01/16 07:32:39;;;;;;;3.20;2.03;;;;;;;20.01;49.31;101351.72;4973017;28;20054;-46
2022/01/16 07:35:05;;;;;;;3.35;2.00;;;;;;;20.02;49.24;101358.72;4973778;28;20065;-46
2022/01/16 07:37:30;;;;;;;3.08;2.33;;;;;;;20.03;49.15;101355.06;4980735;28;20698;-45
2022/01/16 07:39:56;;;;;;;3.30;2.63;;;;;;;20.02;49.23;101358.72;4973378;28;20026;-46
2022/01/16 07:42:22;;;;;;;3.20;2.38;;;;;;;20.01;49.11;101373.03;4970872;28;20038;-45
2022/01/16 07:44:47;;;;;;;7.03;2.58;;;;;;;20.06;49.18;101381.44;4974211;28;20077;-46
2022/01/16 07:47:14;;;;;;;7.03;3.17;;;;;;;20.03;49.27;101376.41;4992196;28;20086;-45
2022/01/16 07:49:39;;;;;;;4.72;2.42;;;;;;;20.01;49.41;101367.69;4971208;28;20066;-58
2022/01/16 07:52:05;;;;;;;3.05;2.20;;;;;;;20.11;49.35;101363.19;4984285;28;20061;-60
2022/01/16 07:54:31;;;;;;;4.15;2.30;;;;;;;20.13;49.30;101361.22;4981114;28;20551;-46
2022/01/16 07:56:56;;;;;;;4.55;2.60;;;;;;;20.15;49.26;101356.59;4976778;28;20543;-56
2022/01/16 07:59:21;;;;;;;4.90;2.20;;;;;;;20.23;49.48;101360.38;4976770;28;20384;-58
2022/01/16 08:01:47;;;;;;;4.20;2.20;;;;;;;20.18;49.56;101356.31;4972839;28;20540;-60
2022/01/16 08:04:12;;;;;;;6.57;2.47;;;;;;;20.08;50.02;101359.97;4972768;28;20029;-59
2022/01/16 08:06:38;;;;;;;4.32;2.25;;;;;;;20.12;49.90;101356.03;4972817;28;20034;-58
2022/01/16 08:09:03;;;;;;;6.35;2.28;;;;;;;20.14;50.36;101362.91;4973848;28;20109;-49
2022/01/16 08:11:28;;;;;;;6.22;2.53;;;;;;;20.20;50.05;101361.47;4972024;28;20054;-44
2022/01/16 08:13:54;;;;;;;5.35;2.50;;;;;;;20.21;50.10;101363.16;4973226;28;20026;-44
2022/01/16 08:16:19;;;;;;;3.47;2.20;;;;;;;20.41;49.72;101358.63;4964373;28;20412;-59
2022/01/16 08:18:45;;;;;;;7.80;2.63;;;;;;;20.24;49.92;101362.03;4974435;28;20174;-56
2022/01/16 08:21:10;;;;;;;6.63;2.17;;;;;;;20.14;50.20;101367.38;4973103;28;20504;-58
2022/01/16 08:23:35;;;;;;;6.03;2.15;;;;;;;20.15;50.44;101369.09;4971551;28;20023;-59
2022/01/16 08:26:02;;;;;;;9.73;2.28;;;;;;;20.20;50.60;101378.34;4971326;28;20027;-61
2022/01/16 08:28:29;;;;;;;3.90;2.55;;;;;;;20.26;50.31;101373.41;4969952;28;20023;-59
2022/01/16 08:30:54;;;;;;;4.28;2.00;;;;;;;20.28;50.33;101390.09;4972178;28;20026;-45
2022/01/16 08:33:19;;;;;;;18.45;2.45;;;;;;;20.29;50.23;101394.47;4971845;28;20026;-46
2022/01/16 08:35:45;;;;;;;14.98;2.70;;;;;;;20.30;50.28;101410.31;4971682;28;20027;-46
2022/01/16 08:38:10;;;;;;;3.45;2.20;;;;;;;20.32;50.04;101412.81;4973855;28;20023;-61
2022/01/16 08:40:36;;;;;;;4.45;1.95;;;;;;;20.38;50.17;101413.09;4978549;28;20447;-60
2022/01/16 08:43:08;;;;;;;7.72;2.35;;;;;;;20.46;50.20;101423.06;4974804;28;20019;-48
2022/01/16 08:45:38;;;;;;;14.15;1.98;;;;;;;20.55;49.86;101418.69;4975582;28;20489;-48
2022/01/16 08:48:04;;;;;;;7.75;2.10;;;;;;;20.59;49.92;101423.59;4975725;28;20038;-59
2022/01/16 08:50:31;;;;;;;3.28;1.70;;;;;;;20.62;49.76;101427.81;4980043;28;20027;-51
2022/01/16 08:52:56;;;;;;;2.97;1.90;;;;;;;20.64;49.83;101436.53;4976356;28;20135;-59
2022/01/16 08:55:22;;;;;;;3.33;2.03;;;;;;;20.68;49.84;101423.75;4976722;28;20038;-54
2022/01/16 08:57:47;;;;;;;4.78;1.80;;;;;;;20.68;49.74;101435.25;4987817;28;20034;-58
2022/01/16 09:00:12;;;;;;;3.92;2.08;;;;;;;20.68;49.85;101440.59;4974794;28;20390;-50
2022/01/16 09:02:38;;;;;;;6.63;2.13;;;;;;;20.72;49.92;101452.66;4975382;28;20076;-45
2022/01/16 09:05:04;;;;;;;2.80;1.98;;;;;;;20.74;49.77;101452.50;4978879;28;20058;-64
2022/01/16 09:07:30;;;;;;;2.60;1.83;;;;;;;20.78;49.78;101453.91;4964116;28;20501;-68
2022/01/16 09:09:57;;;;;;;2.88;1.50;;;;;;;20.96;49.53;101465.47;4975857;28;20081;-61
2022/01/16 09:12:23;;;;;;;6.78;2.05;;;;;;;21.04;49.39;101471.94;4979972;28;20097;-65
2022/01/16 09:14:48;;;;;;;4.05;1.85;;;;;;;21.06;49.17;101475.28;4975145;28;20022;-62
2022/01/16 09:17:14;;;;;;;3.47;1.95;;;;;;;21.14;49.13;101478.91;4975775;28;20035;-46
2022/01/16 09:19:39;;;;;;;3.08;1.80;;;;;;;21.06;49.38;101475.28;4975841;28;20536;-51
2022/01/16 09:22:04;;;;;;;10.85;2.17;;;;;;;20.89;49.58;101475.09;4969899;28;20448;-49
2022/01/16 09:24:31;;;;;;;6.40;2.00;;;;;;;20.73;50.21;101481.00;4978476;28;20493;-59
2022/01/16 09:26:56;;;;;;;5.60;1.98;;;;;;;20.71;50.69;101488.31;4972577;28;20058;-46
2022/01/16 09:29:22;;;;;;;4.03;1.90;;;;;;;20.73;50.49;101498.84;4974217;28;20159;-47
2022/01/16 09:31:47;;;;;;;2.58;1.55;;;;;;;20.73;50.55;101499.69;4974221;28;20484;-47
2022/01/16 09:34:13;;;;;;;2.47;2.10;;;;;;;20.73;50.63;101491.69;4975149;28;20046;-65
2022/01/16 09:36:38;;;;;;;5.35;2.00;;;;;;;20.80;50.44;101505.31;4977414;28;20505;-63
2022/01/16 09:39:04;;;;;;;3.22;2.08;;;;;;;20.97;50.00;101519.72;4975596;28;20041;-60
2022/01/16 09:41:29;;;;;;;3.80;1.70;;;;;;;20.93;50.28;101516.53;4978038;28;20034;-60
2022/01/16 09:43:55;;;;;;;2.55;1.50;;;;;;;20.91;50.48;101515.81;4974314;28;20102;-47
2022/01/16 09:46:20;;;;;;;4.90;2.05;;;;;;;21.01;50.39;101526.47;4977255;28;20069;-49
2022/01/16 09:48:46;;;;;;;2.90;1.52;;;;;;;21.08;50.40;101532.06;4973593;28;20015;-59
2022/01/16 09:51:11;;;;;;;5.40;2.00;;;;;;;21.09;50.36;101539.06;4976361;28;20122;-48
2022/01/16 09:53:41;;;;;;;4.68;1.60;;;;;;;21.03;50.38;101547.66;4976769;28;20031;-60
2022/01/16 09:56:07;;;;;;;2.05;1.55;;;;;;;21.14;50.20;101552.84;4975446;28;20495;-59
2022/01/16 09:58:34;;;;;;;2.13;1.30;;;;;;;21.02;50.54;101548.66;4977057;28;20030;-60
2022/01/16 10:01:00;;;;;;;5.43;1.45;;;;;;;21.05;50.47;101553.69;4975269;28;20046;-49
2022/01/16 10:03:43;;;;;;;2.17;1.50;;;;;;;21.08;50.41;101553.44;4977252;28;20085;-52
2022/01/16 10:06:20;;;;;;;7.63;1.60;;;;;;;21.04;50.38;101550.19;4971821;28;20408;-58
2022/01/16 10:08:47;;;;;;;2.42;1.70;;;;;;;21.03;50.47;101555.69;4973880;28;20027;-47
2022/01/16 10:11:25;;;;;;;2.75;1.73;;;;;;;21.03;50.36;101556.53;4974783;28;20027;-47
2022/01/16 10:14:02;;;;;;;6.80;1.67;;;;;;;21.04;50.37;101568.06;4971475;28;20030;-48
2022/01/16 10:16:33;;;;;;;3.47;1.50;;;;;;;21.15;50.17;101567.91;4974009;28;20033;-49
2022/01/16 10:18:59;;;;;;;5.20;1.48;;;;;;;21.14;50.21;101568.88;4975568;28;20022;-46
2022/01/16 10:21:39;;;;;;;6.18;1.48;;;;;;;21.15;50.34;101579.41;4973213;28;20093;-51
2022/01/16 10:24:26;;;;;;;2.65;1.65;;;;;;;21.12;50.29;101585.03;4973587;28;20495;-58
2022/01/16 10:27:17;;;;;;;5.07;2.45;;;;;;;21.16;50.15;101582.91;4973387;28;20042;-50
2022/01/16 10:29:49;;;;;;;3.50;1.80;;;;;;;21.14;50.47;101582.22;4968959;28;20496;-50
2022/01/16 10:32:18;;;;;;;4.60;1.88;;;;;;;21.14;50.16;101583.06;4969131;28;20054;-48
2022/01/16 10:34:47;;;;;;;15.65;2.15;;;;;;;21.16;50.11;101582.91;4973002;28;20122;-50
2022/01/16 10:37:25;;;;;;;7.40;1.52;;;;;;;21.28;49.86;101591.59;4976536;28;20054;-51
2022/01/16 10:39:56;;;;;;;4.18;1.60;;;;;;;21.30;49.81;101595.81;4971029;28;20041;-63
2022/01/16 10:42:23;;;;;;;6.40;1.98;;;;;;;21.36;49.81;101599.72;4981012;28;20038;-59
2022/01/16 10:45:14;;;;;;;6.30;1.92;;;;;;;21.33;49.98;101610.72;4982015;28;20031;-59
2022/01/16 10:47:43;;;;;;;3.20;1.98;;;;;;;21.36;49.85;101627.28;4971381;28;20046;-59
2022/01/16 10:50:13;;;;;;;9.07;2.03;;;;;;;21.38;49.87;101621.78;4973308;28;20030;-52
2022/01/16 10:52:54;;;;;;;13.25;2.22;;;;;;;21.36;49.88;101624.59;4983862;28;20039;-52
2022/01/16 10:55:23;;;;;;;6.05;2.22;;;;;;;21.20;50.04;101638.56;4971398;28;20145;-51
2022/01/16 10:57:49;;;;;;;2.67;1.85;;;;;;;21.33;49.70;101648.13;4971814;28;20385;-49
2022/01/16 11:00:21;;;;;;;5.45;1.92;;;;;;;21.24;49.86;101647.13;4967434;28;20082;-53
2022/01/16 11:02:49;;;;;;;12.50;3.13;;;;;;;20.95;50.33;101650.69;4970841;28;20035;-51
2022/01/16 11:05:17;;;;;;;8.52;2.63;;;;;;;20.85;50.54;101649.00;4972406;28;20041;-54
2022/01/16 11:07:43;;;;;;;3.95;2.15;;;;;;;20.96;50.26;101648.88;4968881;28;20106;-51
2022/01/16 11:10:30;;;;;;;6.25;2.53;;;;;;;21.03;49.86;101658.00;4971498;28;20122;-55
2022/01/16 11:12:59;;;;;;;7.68;2.65;;;;;;;21.12;49.77;101656.28;4960313;28;20034;-54
2022/01/16 11:15:26;;;;;;;7.55;3.38;;;;;;;21.23;49.33;101668.63;4964237;28;20055;-48
2022/01/16 11:17:52;;;;;;;8.82;2.85;;;;;;;21.24;49.34;101660.50;4960345;28;20692;-47
2022/01/16 11:20:23;;;;;;;10.27;3.30;;;;;;;21.19;49.66;101652.91;4959720;28;20057;-47
2022/01/16 11:25:38;;;;;;;6.82;3.60;;;;;;;21.24;49.39;101648.97;4967149;28;20042;-58
2022/01/16 11:28:20;;;;;;;7.25;4.20;;;;;;;21.16;49.39;101642.50;4971442;28;20023;-49
2022/01/16 11:30:49;;;;;;;27.45;4.07;;;;;;;21.20;49.35;101643.06;4971382;28;20031;-51
2022/01/16 11:33:15;;;;;;;8.10;3.80;;;;;;;21.22;49.46;101642.94;4972897;28;20049;-51
2022/01/16 11:35:47;;;;;;;7.50;3.90;;;;;;;21.24;49.93;101628.44;4974956;28;20046;-59
2022/01/16 11:38:13;;;;;;;8.98;3.65;;;;;;;21.28;50.31;101635.16;4970910;28;20077;-64
2022/01/16 11:40:46;;;;;;;7.53;3.28;;;;;;;21.37;50.58;101633.47;4975449;28;20030;-64
2022/01/16 11:43:12;;;;;;;6.50;2.67;;;;;;;21.35;50.80;101635.44;4987464;28;20402;-66
2022/01/16 11:46:04;;;;;;;12.82;3.03;;;;;;;21.44;50.70;101631.91;4974099;28;20093;-62
2022/01/16 11:48:32;;;;;;;;;;;;;;;21.48;50.75;101640.50;4971658;28;20035;-63
2022/01/16 11:50:58;;;;;;;17.55;2.60;;;;;;;21.56;50.56;101637.94;4970061;28;19980;-63
2022/01/16 11:54:00;;;;;;;11.30;2.80;;;;;;;21.57;50.60;101648.47;4971407;28;20031;-49
2022/01/16 11:56:40;;;;;;;6.30;2.75;;;;;;;21.61;50.69;101651.72;4973665;28;20077;-59
2022/01/16 11:59:12;;;;;;;7.95;3.42;;;;;;;21.61;50.72;101646.38;4970286;28;20389;-56
2022/01/16 12:01:59;;;;;;;7.15;2.92;;;;;;;21.57;50.54;101653.81;4974503;28;20124;-58
2022/01/16 12:04:31;;;;;;;6.72;3.45;;;;;;;21.56;50.42;101668.19;4971550;28;20050;-52
2022/01/16 12:07:01;;;;;;;10.73;3.22;;;;;;;21.54;50.29;101664.81;4973125;28;20062;-61
2022/01/16 12:12:12;;;;;;;9.27;3.38;;;;;;;21.61;50.33;101675.75;4973456;28;20448;-64
2022/01/16 12:15:01;;;;;;;9.50;3.35;;;;;;;21.62;50.19;101669.41;4971598;28;20038;-66
2022/01/16 12:23:04;;;;;;;9.05;3.67;;;;;;;21.61;50.38;101667.75;4968588;28;20501;-47
2022/01/16 12:25:57;;;;;;;14.52;3.92;;;;;;;21.40;50.91;101657.22;4971820;28;20069;-70
2022/01/16 12:28:25;;;;;;;14.02;4.13;;;;;;;21.33;51.38;101658.81;4973482;28;20070;-61
2022/01/16 12:31:01;;;;;;;11.82;3.25;;;;;;;21.25;51.77;101655.97;4974814;28;20034;-63